Weather at Hässleholm Vankivar Airport [CLOSED]

Public forecast

Using degrees Celsius for public forecast. Weather courtesy of forecast.io.

Closest aviation weather report (METAR) to Hässleholm Vankivar Airport

Closest report is Ljungbyhed Airfield, 19.0 nm (35.2 km) WSW.

2024/05/21 00:50 (retrieved 31 minutes ago)

ESTL 210050Z AUTO 10003KT 9999 NCD 10/08 Q1019

Closest aviation forecast (TAF) to Hässleholm Vankivar Airport

Closest forecast is Dortmund Airport, 354.3 nm (656.2 km) SW.

2024/05/20 21:39 (retrieved 4 hours ago)

TAF EDLW 202130Z 2021/2118 CNL